Time;durP1;ratioP1;P1;durP2;ratioP2;P2;SDS_P1;SDS_P2;PMS_P1;PMS_P2;Temp;Humidity;BMP_temperature;BMP_pressure;BME280_temperature;BME280_humidity;BME280_pressure;Samples;Min_cycle;Max_cycle;Signal;HPM_P1;HPM_P2
2023/01/25 00:00:16;;;;;;;22.77;15.93;;;;;;;;;;5064573;28;20209;-70
2023/01/25 00:02:42;;;;;;;21.73;15.13;;;;;;;;;;5064418;28;20496;-70
2023/01/25 00:05:09;;;;;;;23.85;15.15;;;;;;;;;;5064273;28;20374;-70
2023/01/25 00:07:36;;;;;;;23.70;16.42;;;;;;;;;;5063964;28;20520;-70
2023/01/25 00:10:03;;;;;;;21.52;15.27;;;;;;;;;;5064111;28;20231;-70
2023/01/25 00:12:29;;;;;;;19.60;14.65;;;;;;;;;;5064420;28;20197;-70
2023/01/25 00:14:55;;;;;;;21.80;15.60;;;;;;;;;;5064231;28;20197;-70
2023/01/25 00:17:22;;;;;;;22.90;15.20;;;;;;;;;;5064154;28;20204;-70
2023/01/25 00:19:48;;;;;;;23.35;15.55;;;;;;;;;;5063684;28;20193;-70
2023/01/25 00:22:14;;;;;;;19.10;14.73;;;;;;;;;;5064071;28;20523;-70
2023/01/25 00:24:42;;;;;;;22.92;15.70;;;;;;;;;;5063743;28;20205;-70
2023/01/25 00:27:08;;;;;;;22.05;15.15;;;;;;;;;;5063701;28;20387;-70
2023/01/25 00:29:34;;;;;;;20.75;14.45;;;;;;;;;;5063824;28;20217;-70
2023/01/25 00:32:07;;;;;;;22.92;15.32;;;;;;;;;;5063878;28;20266;-70
2023/01/25 00:34:43;;;;;;;22.48;15.63;;;;;;;;;;5064141;28;20225;-70
2023/01/25 00:37:14;;;;;;;19.65;14.77;;;;;;;;;;5063705;28;20496;-71
2023/01/25 00:39:42;;;;;;;20.63;14.50;;;;;;;;;;5063627;28;20193;-71
2023/01/25 00:42:09;;;;;;;24.40;15.95;;;;;;;;;;5063484;28;20250;-71
2023/01/25 00:44:35;;;;;;;19.33;15.20;;;;;;;;;;5063612;28;20209;-71
2023/01/25 00:47:01;;;;;;;18.35;14.23;;;;;;;;;;5063389;28;20234;-71
2023/01/25 00:49:30;;;;;;;24.05;14.15;;;;;;;;;;5062835;28;20213;-71
2023/01/25 00:51:56;;;;;;;21.58;15.23;;;;;;;;;;5063487;28;20243;-71
2023/01/25 00:54:23;;;;;;;19.25;14.32;;;;;;;;;;5063462;28;20197;-71
2023/01/25 00:56:51;;;;;;;19.45;14.60;;;;;;;;;;5063375;28;20404;-71
2023/01/25 00:59:17;;;;;;;21.50;15.38;;;;;;;;;;5062913;28;20388;-71
2023/01/25 01:01:44;;;;;;;19.92;13.93;;;;;;;;;;5063136;28;20197;-71
2023/01/25 01:04:10;;;;;;;20.55;15.27;;;;;;;;;;5063034;28;20251;-71
2023/01/25 01:06:37;;;;;;;22.75;15.15;;;;;;;;;;5062978;28;20216;-71
2023/01/25 01:09:03;;;;;;;21.05;14.73;;;;;;;;;;5063098;28;20533;-71
2023/01/25 01:11:30;;;;;;;24.08;16.10;;;;;;;;;;5063025;28;20204;-71
2023/01/25 01:13:58;;;;;;;19.92;14.18;;;;;;;;;;5063117;28;20451;-71
2023/01/25 01:16:25;;;;;;;20.73;14.60;;;;;;;;;;5062898;28;20407;-71
2023/01/25 01:18:51;;;;;;;22.30;14.52;;;;;;;;;;5062815;28;20197;-71
2023/01/25 01:21:17;;;;;;;20.88;15.75;;;;;;;;;;5062802;28;20197;-71
2023/01/25 01:23:44;;;;;;;20.83;15.20;;;;;;;;;;5062704;28;20376;-71
2023/01/25 01:26:11;;;;;;;20.73;14.95;;;;;;;;;;5062866;28;20446;-71
2023/01/25 01:28:38;;;;;;;19.13;14.73;;;;;;;;;;5062389;28;20543;-71
2023/01/25 01:31:08;;;;;;;22.10;15.43;;;;;;;;;;5062582;28;20580;-71
2023/01/25 01:33:34;;;;;;;25.60;15.65;;;;;;;;;;5062222;28;20431;-71
2023/01/25 01:36:06;;;;;;;23.08;15.57;;;;;;;;;;5062745;28;20243;-70
2023/01/25 01:38:32;;;;;;;22.80;15.20;;;;;;;;;;5062442;28;20251;-70
2023/01/25 01:40:58;;;;;;;22.50;15.88;;;;;;;;;;5062526;28;20204;-70
2023/01/25 01:43:25;;;;;;;22.25;16.10;;;;;;;;;;5062425;28;20201;-70
2023/01/25 01:45:53;;;;;;;20.52;15.32;;;;;;;;;;5062356;28;20219;-70
2023/01/25 01:48:22;;;;;;;23.67;14.57;;;;;;;;;;5062089;28;20205;-70
2023/01/25 01:50:51;;;;;;;21.95;15.25;;;;;;;;;;5062543;28;20512;-70
2023/01/25 01:53:17;;;;;;;23.92;14.68;;;;;;;;;;5062507;28;20205;-70
2023/01/25 01:55:43;;;;;;;24.02;15.55;;;;;;;;;;5062313;28;20205;-70
2023/01/25 01:58:10;;;;;;;23.13;15.50;;;;;;;;;;5062432;28;20197;-70
2023/01/25 02:00:37;;;;;;;19.67;14.88;;;;;;;;;;5062403;28;20197;-70
2023/01/25 02:03:04;;;;;;;21.48;14.75;;;;;;;;;;5062560;28;20201;-70
2023/01/25 02:05:35;;;;;;;20.35;14.70;;;;;;;;;;5062365;28;20524;-70
2023/01/25 02:08:03;;;;;;;21.17;14.82;;;;;;;;;;5061955;28;20204;-70
2023/01/25 02:10:30;;;;;;;20.48;13.77;;;;;;;;;;5062067;28;20266;-70
2023/01/25 02:12:57;;;;;;;21.10;14.40;;;;;;;;;;5062172;28;20250;-71
2023/01/25 02:15:23;;;;;;;21.63;15.40;;;;;;;;;;5062219;28;20205;-71
2023/01/25 02:17:51;;;;;;;20.08;14.07;;;;;;;;;;5061975;28;20235;-71
2023/01/25 02:20:22;;;;;;;20.70;14.68;;;;;;;;;;5061996;28;20193;-71
2023/01/25 02:22:54;;;;;;;20.60;14.32;;;;;;;;;;5061989;28;20205;-71
2023/01/25 02:25:21;;;;;;;23.73;15.60;;;;;;;;;;5061876;28;20216;-71
2023/01/25 02:27:49;;;;;;;19.00;14.18;;;;;;;;;;5061742;28;20217;-71
2023/01/25 02:30:15;;;;;;;20.23;14.25;;;;;;;;;;5061986;28;20224;-71
2023/01/25 02:32:41;;;;;;;22.48;14.43;;;;;;;;;;5062137;28;20243;-71
2023/01/25 02:35:18;;;;;;;20.48;13.75;;;;;;;;;;5061938;28;20197;-71
2023/01/25 02:37:44;;;;;;;21.08;14.07;;;;;;;;;;5061749;28;20197;-71
2023/01/25 02:40:11;;;;;;;22.08;14.10;;;;;;;;;;5061990;28;20193;-71
2023/01/25 02:42:41;;;;;;;19.23;14.38;;;;;;;;;;5062011;28;20192;-71
2023/01/25 02:45:09;;;;;;;19.50;14.20;;;;;;;;;;5063873;28;20422;-71
2023/01/25 02:47:35;;;;;;;18.73;13.65;;;;;;;;;;5065466;28;20201;-71
2023/01/25 02:50:02;;;;;;;19.60;14.25;;;;;;;;;;5065147;28;20231;-71
2023/01/25 02:52:28;;;;;;;22.00;14.82;;;;;;;;;;5065669;28;20208;-71
2023/01/25 02:54:54;;;;;;;19.52;14.07;;;;;;;;;;5065605;28;20219;-71
2023/01/25 02:57:20;;;;;;;20.15;13.38;;;;;;;;;;5065465;28;20197;-71
2023/01/25 02:59:48;;;;;;;20.17;14.48;;;;;;;;;;5065300;28;20194;-71
2023/01/25 03:02:14;;;;;;;22.77;14.18;;;;;;;;;;5065277;28;20201;-71
2023/01/25 03:04:41;;;;;;;20.00;14.30;;;;;;;;;;5065544;28;20201;-71
2023/01/25 03:07:07;;;;;;;18.77;14.05;;;;;;;;;;5065461;28;20197;-71
2023/01/25 03:09:33;;;;;;;19.63;13.77;;;;;;;;;;5065173;28;20220;-71
2023/01/25 03:11:59;;;;;;;20.45;13.82;;;;;;;;;;5065465;28;20197;-71
2023/01/25 03:14:26;;;;;;;21.67;14.25;;;;;;;;;;5065139;28;20197;-71
2023/01/25 03:16:53;;;;;;;21.52;13.95;;;;;;;;;;5065085;28;20201;-71
2023/01/25 03:19:19;;;;;;;21.10;13.50;;;;;;;;;;5064779;28;20415;-71
2023/01/25 03:21:46;;;;;;;23.33;14.13;;;;;;;;;;5065121;28;20268;-71
2023/01/25 03:24:12;;;;;;;22.27;14.93;;;;;;;;;;5064981;28;20205;-71
2023/01/25 03:29:19;;;;;;;21.00;13.52;;;;;;;;;;5064236;28;20298;-71
2023/01/25 03:31:45;;;;;;;19.75;13.40;;;;;;;;;;5065084;28;20205;-71
2023/01/25 03:34:13;;;;;;;22.42;13.70;;;;;;;;;;5065033;28;20250;-71
2023/01/25 03:36:39;;;;;;;17.05;13.40;;;;;;;;;;5064712;28;20200;-71
2023/01/25 03:39:05;;;;;;;18.58;13.65;;;;;;;;;;5064530;28;20197;-71
2023/01/25 03:41:31;;;;;;;21.73;14.18;;;;;;;;;;5064638;28;20527;-71
2023/01/25 03:43:58;;;;;;;18.58;13.38;;;;;;;;;;5064608;28;20387;-71
2023/01/25 03:46:24;;;;;;;17.92;12.93;;;;;;;;;;5064859;28;20197;-71
2023/01/25 03:48:50;;;;;;;16.73;12.52;;;;;;;;;;5064513;28;20273;-71
2023/01/25 03:51:18;;;;;;;17.52;12.07;;;;;;;;;;5064573;28;20227;-71
2023/01/25 03:53:44;;;;;;;19.95;13.00;;;;;;;;;;5064523;28;20201;-71
2023/01/25 03:56:16;;;;;;;18.30;12.85;;;;;;;;;;5064044;28;20205;-71
2023/01/25 03:58:42;;;;;;;20.35;13.38;;;;;;;;;;5064533;28;20504;-71
2023/01/25 04:01:09;;;;;;;19.10;13.13;;;;;;;;;;5064588;28;20192;-71
2023/01/25 04:03:35;;;;;;;17.92;12.65;;;;;;;;;;5064197;28;20193;-71
2023/01/25 04:06:02;;;;;;;18.63;12.50;;;;;;;;;;5064349;28;20196;-71
2023/01/25 04:08:30;;;;;;;19.33;12.95;;;;;;;;;;5064029;28;20204;-71
2023/01/25 04:10:57;;;;;;;21.02;12.90;;;;;;;;;;5063967;28;20219;-71
2023/01/25 04:13:24;;;;;;;17.60;13.18;;;;;;;;;;5064256;28;20433;-71
2023/01/25 04:15:50;;;;;;;19.35;12.23;;;;;;;;;;5064211;28;20216;-71
2023/01/25 04:18:17;;;;;;;17.90;12.50;;;;;;;;;;5064059;28;20198;-71
2023/01/25 04:20:43;;;;;;;17.52;12.10;;;;;;;;;;5064035;28;20197;-71
2023/01/25 04:23:10;;;;;;;20.38;12.27;;;;;;;;;;5063890;28;20399;-71
2023/01/25 04:25:38;;;;;;;17.92;11.05;;;;;;;;;;5063764;28;20205;-71
2023/01/25 04:28:05;;;;;;;19.50;12.82;;;;;;;;;;5063571;28;20221;-71
2023/01/25 04:30:31;;;;;;;19.08;13.07;;;;;;;;;;5063833;28;20223;-71
2023/01/25 04:33:01;;;;;;;16.85;11.85;;;;;;;;;;5063813;28;20196;-71
2023/01/25 04:35:28;;;;;;;16.85;11.82;;;;;;;;;;5064122;28;20374;-71
2023/01/25 04:37:54;;;;;;;16.05;11.57;;;;;;;;;;5063328;28;20375;-71
2023/01/25 04:40:21;;;;;;;17.27;12.05;;;;;;;;;;5063441;28;20201;-71
2023/01/25 04:42:48;;;;;;;17.52;11.90;;;;;;;;;;5063560;28;20196;-71
2023/01/25 04:45:14;;;;;;;16.52;11.50;;;;;;;;;;5063573;28;20355;-71
2023/01/25 04:47:41;;;;;;;19.75;12.15;;;;;;;;;;5063317;28;20423;-71
2023/01/25 04:50:07;;;;;;;16.92;11.52;;;;;;;;;;5063353;28;20559;-71
2023/01/25 04:52:33;;;;;;;16.33;11.45;;;;;;;;;;5063200;28;20208;-71
2023/01/25 04:55:00;;;;;;;17.50;11.98;;;;;;;;;;5063491;28;20193;-71
2023/01/25 04:57:26;;;;;;;18.67;11.88;;;;;;;;;;5063224;28;20197;-71
2023/01/25 04:59:54;;;;;;;14.25;11.13;;;;;;;;;;5063316;28;20193;-71
2023/01/25 05:02:20;;;;;;;15.98;11.75;;;;;;;;;;5063239;28;20197;-71
2023/01/25 05:04:46;;;;;;;17.83;11.55;;;;;;;;;;5063029;28;20201;-71
2023/01/25 05:07:12;;;;;;;18.70;11.70;;;;;;;;;;5062685;28;20197;-71
2023/01/25 05:09:39;;;;;;;16.83;10.68;;;;;;;;;;5063028;28;20197;-71
2023/01/25 05:12:10;;;;;;;15.35;10.88;;;;;;;;;;5063034;28;20201;-71
2023/01/25 05:14:36;;;;;;;16.70;11.82;;;;;;;;;;5063111;28;20205;-71
2023/01/25 05:17:04;;;;;;;15.77;11.07;;;;;;;;;;5062877;28;20239;-71
2023/01/25 05:19:30;;;;;;;17.27;11.40;;;;;;;;;;5062643;28;20201;-71
2023/01/25 05:21:59;;;;;;;17.95;11.55;;;;;;;;;;5062689;28;20204;-71
2023/01/25 05:24:26;;;;;;;15.07;11.18;;;;;;;;;;5062694;28;20480;-71
2023/01/25 05:27:02;;;;;;;16.92;11.30;;;;;;;;;;5063217;28;20201;-72
2023/01/25 05:29:29;;;;;;;17.05;11.00;;;;;;;;;;5062567;28;20200;-70
2023/01/25 05:31:55;;;;;;;15.18;11.30;;;;;;;;;;5062610;28;20201;-70
2023/01/25 05:34:23;;;;;;;14.48;10.23;;;;;;;;;;5062596;28;20197;-70
2023/01/25 05:36:49;;;;;;;14.57;10.80;;;;;;;;;;5062644;28;20209;-70
2023/01/25 05:39:15;;;;;;;18.23;10.10;;;;;;;;;;5062306;28;20197;-70
2023/01/25 05:41:42;;;;;;;15.85;11.27;;;;;;;;;;5062895;28;20488;-70
2023/01/25 05:44:08;;;;;;;15.18;10.45;;;;;;;;;;5062555;28;20501;-70
2023/01/25 05:46:34;;;;;;;13.98;10.18;;;;;;;;;;5062395;28;20204;-70
2023/01/25 05:49:01;;;;;;;16.40;11.65;;;;;;;;;;5061970;28;20203;-70
2023/01/25 05:51:28;;;;;;;14.45;10.30;;;;;;;;;;5062592;28;20228;-71
2023/01/25 05:53:55;;;;;;;16.15;11.13;;;;;;;;;;5062185;28;20197;-70
2023/01/25 05:56:22;;;;;;;14.38;10.65;;;;;;;;;;5062098;28;20201;-71
2023/01/25 05:58:52;;;;;;;17.35;11.27;;;;;;;;;;5061759;28;20197;-70
2023/01/25 06:01:18;;;;;;;13.98;10.45;;;;;;;;;;5061804;28;20197;-71
2023/01/25 06:03:45;;;;;;;16.55;11.18;;;;;;;;;;5061777;28;20197;-70
2023/01/25 06:06:11;;;;;;;13.60;10.07;;;;;;;;;;5062152;28;20504;-71
2023/01/25 06:08:40;;;;;;;14.05;9.77;;;;;;;;;;5061934;28;20197;-70
2023/01/25 06:11:07;;;;;;;16.83;10.50;;;;;;;;;;5061726;28;20224;-70
2023/01/25 06:13:33;;;;;;;13.55;10.23;;;;;;;;;;5061835;28;20204;-70
2023/01/25 06:15:59;;;;;;;13.60;10.63;;;;;;;;;;5061584;28;20224;-70
2023/01/25 06:18:26;;;;;;;14.68;10.23;;;;;;;;;;5061706;28;20223;-72
2023/01/25 06:20:52;;;;;;;14.35;10.52;;;;;;;;;;5061862;28;20812;-71
2023/01/25 06:23:18;;;;;;;12.85;10.35;;;;;;;;;;5061590;28;20412;-71
2023/01/25 06:25:46;;;;;;;14.20;9.55;;;;;;;;;;5061527;28;20430;-70
2023/01/25 06:28:12;;;;;;;14.75;10.40;;;;;;;;;;5061282;28;20221;-70
2023/01/25 06:30:38;;;;;;;13.82;10.60;;;;;;;;;;5061240;28;20220;-70
2023/01/25 06:33:05;;;;;;;14.13;9.63;;;;;;;;;;5061838;28;20197;-70
2023/01/25 06:35:31;;;;;;;13.60;10.38;;;;;;;;;;5061354;28;20466;-70
2023/01/25 06:37:58;;;;;;;12.05;9.52;;;;;;;;;;5061289;28;20197;-70
2023/01/25 06:40:24;;;;;;;13.27;10.60;;;;;;;;;;5061670;28;20197;-70
2023/01/25 06:42:52;;;;;;;13.65;10.82;;;;;;;;;;5062847;28;20205;-71
2023/01/25 06:45:18;;;;;;;14.40;10.68;;;;;;;;;;5063770;28;20395;-71
2023/01/25 06:47:45;;;;;;;14.77;10.23;;;;;;;;;;5063850;28;20197;-71
2023/01/25 06:50:12;;;;;;;12.93;9.88;;;;;;;;;;5064130;28;20264;-71
2023/01/25 06:52:38;;;;;;;13.93;10.38;;;;;;;;;;5064089;28;20198;-71
2023/01/25 06:55:05;;;;;;;15.25;10.68;;;;;;;;;;5064556;28;20197;-71
2023/01/25 06:57:32;;;;;;;11.88;9.98;;;;;;;;;;5064238;28;20201;-71
2023/01/25 06:59:59;;;;;;;15.73;10.80;;;;;;;;;;5064570;28;20212;-71
2023/01/25 07:02:26;;;;;;;15.07;9.93;;;;;;;;;;5063794;28;20197;-71
2023/01/25 07:04:52;;;;;;;13.43;10.15;;;;;;;;;;5064042;28;20268;-71
2023/01/25 07:07:18;;;;;;;13.18;10.10;;;;;;;;;;5064146;28;20204;-71
2023/01/25 07:09:44;;;;;;;14.68;10.68;;;;;;;;;;5064478;28;20193;-71
2023/01/25 07:12:11;;;;;;;12.77;9.88;;;;;;;;;;5064802;28;20213;-71
2023/01/25 07:14:37;;;;;;;14.13;10.63;;;;;;;;;;5064209;28;20361;-71
2023/01/25 07:17:05;;;;;;;12.63;10.15;;;;;;;;;;5064753;28;20442;-71
2023/01/25 07:19:31;;;;;;;13.15;10.40;;;;;;;;;;5064501;28;20243;-71
2023/01/25 07:21:57;;;;;;;16.38;11.18;;;;;;;;;;5064615;28;20193;-71
2023/01/25 07:24:25;;;;;;;15.45;10.75;;;;;;;;;;5064251;28;20209;-71
2023/01/25 07:26:52;;;;;;;17.25;11.98;;;;;;;;;;5063934;28;20204;-71
2023/01/25 07:29:18;;;;;;;13.55;10.35;;;;;;;;;;5064520;28;20224;-71
2023/01/25 07:31:44;;;;;;;14.68;10.88;;;;;;;;;;5067377;28;20217;-71
2023/01/25 07:34:12;;;;;;;15.82;11.07;;;;;;;;;;5066409;28;20235;-63
2023/01/25 07:36:39;;;;;;;14.57;11.10;;;;;;;;;;5064357;28;20197;-63
2023/01/25 07:39:08;;;;;;;15.70;10.88;;;;;;;;;;5064909;28;20197;-63
2023/01/25 07:41:34;;;;;;;16.23;12.63;;;;;;;;;;5064879;28;20193;-63
2023/01/25 07:44:01;;;;;;;16.20;11.95;;;;;;;;;;5060911;28;20197;-61
2023/01/25 07:46:27;;;;;;;16.17;11.88;;;;;;;;;;5055154;28;20213;-61
2023/01/25 07:48:53;;;;;;;18.25;11.98;;;;;;;;;;5059466;28;20198;-62
2023/01/25 07:51:25;;;;;;;17.48;12.00;;;;;;;;;;5061536;28;20258;-62
2023/01/25 07:53:53;;;;;;;17.02;11.82;;;;;;;;;;5066107;28;20223;-63
2023/01/25 07:56:20;;;;;;;16.38;12.38;;;;;;;;;;5071949;28;20512;-63
2023/01/25 07:58:47;;;;;;;18.10;12.38;;;;;;;;;;5075344;28;20209;-61
2023/01/25 08:01:14;;;;;;;15.57;11.52;;;;;;;;;;5077666;28;20204;-62
2023/01/25 08:03:41;;;;;;;16.08;11.63;;;;;;;;;;5075551;28;20405;-62
2023/01/25 08:06:08;;;;;;;14.25;10.82;;;;;;;;;;5080138;28;20207;-61
2023/01/25 08:08:38;;;;;;;16.48;11.10;;;;;;;;;;5065679;28;20576;-61
2023/01/25 08:11:07;;;;;;;14.95;11.65;;;;;;;;;;5064899;28;20564;-61
2023/01/25 08:13:33;;;;;;;14.02;11.57;;;;;;;;;;5066918;28;20283;-61
2023/01/25 08:16:00;;;;;;;14.95;11.65;;;;;;;;;;5076221;28;20200;-61
2023/01/25 08:18:26;;;;;;;14.15;11.10;;;;;;;;;;5072882;28;20213;-61
2023/01/25 08:20:52;;;;;;;14.57;10.93;;;;;;;;;;5073152;28;20441;-61
2023/01/25 08:23:19;;;;;;;16.25;11.93;;;;;;;;;;5083284;28;20492;-61
2023/01/25 08:25:47;;;;;;;16.30;11.73;;;;;;;;;;5077936;28;20568;-61
2023/01/25 08:28:13;;;;;;;16.35;12.25;;;;;;;;;;5069515;28;20225;-61
2023/01/25 08:30:39;;;;;;;17.75;12.52;;;;;;;;;;5067192;28;20252;-60
2023/01/25 08:33:06;;;;;;;18.50;13.30;;;;;;;;;;5085801;28;20215;-60
2023/01/25 08:35:34;;;;;;;17.02;12.63;;;;;;;;;;5080097;28;20449;-61
2023/01/25 08:38:00;;;;;;;18.23;13.60;;;;;;;;;;5074061;28;20468;-61
2023/01/25 08:40:26;;;;;;;20.25;13.68;;;;;;;;;;5084645;28;20216;-62
2023/01/25 08:42:54;;;;;;;17.13;13.23;;;;;;;;;;5056885;28;20201;-61
2023/01/25 08:45:20;;;;;;;18.05;12.73;;;;;;;;;;5057557;28;20216;-61
2023/01/25 08:47:47;;;;;;;20.15;12.35;;;;;;;;;;5056978;28;20213;-62
2023/01/25 08:50:13;;;;;;;17.30;12.50;;;;;;;;;;5074400;28;20209;-61
2023/01/25 08:52:39;;;;;;;18.10;12.98;;;;;;;;;;5057608;28;20300;-61
2023/01/25 08:55:06;;;;;;;20.05;14.02;;;;;;;;;;5070874;28;20258;-64
2023/01/25 08:57:32;;;;;;;19.05;13.68;;;;;;;;;;5092322;28;20496;-64
2023/01/25 09:00:00;;;;;;;18.13;13.18;;;;;;;;;;5103251;28;20232;-64
2023/01/25 09:02:26;;;;;;;18.77;13.73;;;;;;;;;;5103207;28;20192;-64
2023/01/25 09:04:52;;;;;;;18.73;13.75;;;;;;;;;;5103295;28;20200;-64
2023/01/25 09:07:19;;;;;;;19.10;13.63;;;;;;;;;;5102936;28;20196;-64
2023/01/25 09:09:45;;;;;;;19.75;13.77;;;;;;;;;;5103223;28;20267;-64
2023/01/25 09:12:11;;;;;;;20.33;12.88;;;;;;;;;;5103067;28;20223;-64
2023/01/25 09:14:39;;;;;;;22.65;14.80;;;;;;;;;;5102950;28;20203;-64
2023/01/25 09:17:06;;;;;;;20.02;14.20;;;;;;;;;;5102825;28;20203;-64
2023/01/25 09:19:32;;;;;;;22.05;14.27;;;;;;;;;;5102523;28;20527;-64
2023/01/25 09:21:59;;;;;;;22.02;14.13;;;;;;;;;;5102764;28;20523;-64
2023/01/25 09:24:25;;;;;;;23.77;14.10;;;;;;;;;;5102524;28;20452;-64
2023/01/25 09:26:51;;;;;;;19.92;14.10;;;;;;;;;;5102532;28;20196;-64
2023/01/25 09:29:17;;;;;;;19.65;13.77;;;;;;;;;;5102359;28;20253;-64
2023/01/25 09:31:44;;;;;;;21.42;14.45;;;;;;;;;;5102407;28;20220;-64
2023/01/25 09:34:12;;;;;;;20.45;14.65;;;;;;;;;;5102551;28;20233;-64
2023/01/25 09:36:38;;;;;;;23.90;16.08;;;;;;;;;;5102721;28;20199;-64
2023/01/25 09:39:04;;;;;;;19.55;13.98;;;;;;;;;;5102416;28;20202;-64
2023/01/25 09:41:39;;;;;;;22.65;14.38;;;;;;;;;;5102378;28;20199;-64
2023/01/25 09:44:16;;;;;;;24.58;15.48;;;;;;;;;;5102270;28;20209;-64
2023/01/25 09:46:44;;;;;;;19.38;13.70;;;;;;;;;;5102386;28;20199;-64
2023/01/25 09:49:18;;;;;;;20.80;14.05;;;;;;;;;;5102255;28;20196;-64
2023/01/25 09:51:53;;;;;;;21.23;13.88;;;;;;;;;;5102270;28;20215;-64
2023/01/25 09:54:20;;;;;;;21.80;14.65;;;;;;;;;;5101871;28;20195;-64
2023/01/25 09:56:48;;;;;;;18.75;13.00;;;;;;;;;;5102145;28;20196;-64
2023/01/25 09:59:16;;;;;;;18.85;12.98;;;;;;;;;;5101971;28;20265;-64
2023/01/25 10:01:46;;;;;;;19.38;12.93;;;;;;;;;;5102269;28;20192;-64
2023/01/25 10:04:14;;;;;;;16.48;11.90;;;;;;;;;;5102475;28;20196;-64
2023/01/25 10:06:44;;;;;;;16.20;12.43;;;;;;;;;;5102288;28;20229;-64
2023/01/25 10:09:19;;;;;;;16.83;12.23;;;;;;;;;;5101807;28;20187;-64
2023/01/25 10:11:46;;;;;;;15.30;11.75;;;;;;;;;;5101967;28;20219;-64
2023/01/25 10:14:14;;;;;;;16.70;12.65;;;;;;;;;;5101994;28;20227;-64
2023/01/25 10:16:50;;;;;;;16.98;12.38;;;;;;;;;;5101632;28;20192;-64
2023/01/25 10:19:19;;;;;;;16.98;12.40;;;;;;;;;;5101759;28;20195;-64
2023/01/25 10:21:49;;;;;;;15.27;11.93;;;;;;;;;;5101613;28;20192;-64
2023/01/25 10:24:31;;;;;;;17.30;12.65;;;;;;;;;;5101627;28;20219;-64
2023/01/25 10:26:58;;;;;;;18.38;12.43;;;;;;;;;;5101636;28;20196;-64
2023/01/25 10:29:27;;;;;;;17.70;12.20;;;;;;;;;;5101619;28;20209;-64
2023/01/25 10:31:54;;;;;;;17.67;13.00;;;;;;;;;;5101634;28;20227;-64
2023/01/25 10:34:21;;;;;;;16.88;12.57;;;;;;;;;;5101600;28;20219;-64
2023/01/25 10:36:50;;;;;;;17.23;11.52;;;;;;;;;;5102086;28;20211;-64
2023/01/25 10:39:17;;;;;;;17.33;12.10;;;;;;;;;;5101725;28;20425;-64
2023/01/25 10:41:46;;;;;;;18.55;12.95;;;;;;;;;;5101595;28;20238;-64
2023/01/25 10:44:23;;;;;;;17.52;12.15;;;;;;;;;;5101687;28;20195;-64
2023/01/25 10:46:52;;;;;;;17.48;12.35;;;;;;;;;;5101407;28;20510;-64
2023/01/25 10:49:22;;;;;;;19.38;13.02;;;;;;;;;;5101353;28;20241;-64
2023/01/25 10:51:50;;;;;;;17.20;12.23;;;;;;;;;;5101739;28;20496;-64
2023/01/25 10:54:16;;;;;;;19.92;12.75;;;;;;;;;;5101444;28;20195;-64
2023/01/25 10:56:44;;;;;;;20.70;13.68;;;;;;;;;;5101522;28;20203;-64
2023/01/25 10:59:16;;;;;;;18.60;12.98;;;;;;;;;;5101299;28;20195;-64
2023/01/25 11:01:42;;;;;;;16.05;12.40;;;;;;;;;;5101796;28;20317;-64
2023/01/25 11:04:22;;;;;;;15.98;12.75;;;;;;;;;;5101647;28;20371;-64
2023/01/25 11:06:51;;;;;;;18.05;13.32;;;;;;;;;;5104890;28;20195;-64
2023/01/25 11:09:31;;;;;;;14.65;12.07;;;;;;;;;;5105218;28;20196;-64
2023/01/25 11:11:58;;;;;;;17.13;11.52;;;;;;;;;;5105123;28;20530;-64
2023/01/25 11:14:26;;;;;;;15.98;11.30;;;;;;;;;;5105303;28;20208;-64
2023/01/25 11:16:52;;;;;;;15.27;11.68;;;;;;;;;;5105147;28;20483;-64
2023/01/25 11:19:24;;;;;;;15.88;11.65;;;;;;;;;;5105025;28;20204;-64
2023/01/25 11:21:52;;;;;;;14.65;11.50;;;;;;;;;;5105185;28;20245;-64
2023/01/25 11:24:19;;;;;;;17.10;12.38;;;;;;;;;;5105427;28;20530;-64
2023/01/25 11:26:45;;;;;;;19.42;12.57;;;;;;;;;;5105258;28;20401;-64
2023/01/25 11:29:15;;;;;;;16.38;11.70;;;;;;;;;;5104911;28;20414;-64
2023/01/25 11:31:44;;;;;;;19.13;12.68;;;;;;;;;;5105149;28;20212;-64
2023/01/25 11:34:11;;;;;;;17.80;13.52;;;;;;;;;;5104880;28;20218;-64
2023/01/25 11:36:41;;;;;;;18.98;13.93;;;;;;;;;;5104826;28;20233;-64
2023/01/25 11:39:19;;;;;;;19.30;13.95;;;;;;;;;;5104641;28;20195;-64
2023/01/25 11:41:52;;;;;;;21.08;13.77;;;;;;;;;;5104910;28;20252;-64
2023/01/25 11:44:37;;;;;;;19.60;13.40;;;;;;;;;;5104761;28;20195;-64
2023/01/25 11:47:08;;;;;;;19.75;13.55;;;;;;;;;;5104578;28;20195;-64
2023/01/25 11:49:41;;;;;;;17.35;13.13;;;;;;;;;;5104576;28;20184;-64
2023/01/25 11:52:14;;;;;;;20.30;13.80;;;;;;;;;;5104579;28;20432;-64
2023/01/25 11:54:44;;;;;;;17.83;13.15;;;;;;;;;;5104935;28;20204;-64
2023/01/25 11:57:25;;;;;;;18.73;14.07;;;;;;;;;;5104470;28;20196;-64
2023/01/25 12:00:00;;;;;;;18.98;13.45;;;;;;;;;;5104088;28;20211;-64
2023/01/25 12:02:36;;;;;;;20.35;13.40;;;;;;;;;;5104425;28;20210;-64
2023/01/25 12:05:07;;;;;;;19.90;13.73;;;;;;;;;;5104442;28;20195;-64
2023/01/25 12:07:40;;;;;;;17.90;12.82;;;;;;;;;;5104197;28;20195;-63
2023/01/25 12:10:20;;;;;;;19.77;13.57;;;;;;;;;;5104014;28;20204;-63
2023/01/25 12:12:51;;;;;;;17.88;13.25;;;;;;;;;;5104472;28;20216;-63
2023/01/25 12:15:24;;;;;;;19.63;13.18;;;;;;;;;;5104165;28;20196;-63
2023/01/25 12:18:04;;;;;;;21.08;14.80;;;;;;;;;;5103523;28;20196;-63
2023/01/25 12:20:40;;;;;;;19.75;13.63;;;;;;;;;;5103791;28;20203;-63
2023/01/25 12:23:19;;;;;;;20.80;14.93;;;;;;;;;;5104027;28;20232;-63
2023/01/25 12:25:54;;;;;;;21.85;15.00;;;;;;;;;;5104165;28;20225;-63
2023/01/25 12:28:22;;;;;;;19.85;14.23;;;;;;;;;;5103817;28;20219;-63
2023/01/25 12:30:51;;;;;;;20.63;14.40;;;;;;;;;;5103811;28;20399;-63
2023/01/25 12:33:20;;;;;;;21.42;14.65;;;;;;;;;;5103917;28;20219;-63
2023/01/25 12:35:50;;;;;;;23.05;14.25;;;;;;;;;;5103803;28;20195;-63
2023/01/25 12:38:19;;;;;;;24.33;15.05;;;;;;;;;;5103277;28;20204;-65
2023/01/25 12:40:48;;;;;;;22.60;15.25;;;;;;;;;;5103858;28;20484;-63
2023/01/25 12:43:19;;;;;;;22.13;15.25;;;;;;;;;;5104103;28;20383;-63
2023/01/25 12:45:46;;;;;;;23.10;14.73;;;;;;;;;;5103694;28;20210;-63
2023/01/25 12:48:15;;;;;;;22.83;15.10;;;;;;;;;;5103519;28;20218;-63
2023/01/25 12:50:43;;;;;;;22.90;14.43;;;;;;;;;;5103630;28;20202;-63
2023/01/25 12:53:13;;;;;;;19.85;13.90;;;;;;;;;;5103206;28;20458;-63
2023/01/25 12:55:40;;;;;;;22.08;14.55;;;;;;;;;;5103500;28;20199;-63
2023/01/25 12:58:12;;;;;;;22.23;15.13;;;;;;;;;;5102934;28;20196;-63
2023/01/25 13:00:44;;;;;;;19.90;14.10;;;;;;;;;;5103655;28;20219;-63
2023/01/25 13:03:16;;;;;;;26.02;15.77;;;;;;;;;;5103316;28;20523;-63
2023/01/25 13:05:46;;;;;;;26.65;15.80;;;;;;;;;;5103277;28;20196;-63
2023/01/25 13:08:18;;;;;;;20.88;13.85;;;;;;;;;;5102999;28;20410;-63
2023/01/25 13:10:46;;;;;;;25.27;15.82;;;;;;;;;;5103299;28;20192;-63
2023/01/25 13:13:32;;;;;;;20.77;14.95;;;;;;;;;;5102982;28;20272;-63
2023/01/25 13:16:19;;;;;;;23.65;15.00;;;;;;;;;;5103118;28;20195;-64
2023/01/25 13:18:46;;;;;;;24.20;15.15;;;;;;;;;;5102465;28;20204;-63
2023/01/25 13:21:38;;;;;;;25.52;15.50;;;;;;;;;;5103273;28;20195;-63
2023/01/25 13:24:12;;;;;;;20.48;14.32;;;;;;;;;;5102782;28;20380;-63
2023/01/25 13:26:46;;;;;;;23.00;14.88;;;;;;;;;;5102706;28;20224;-63
2023/01/25 13:29:32;;;;;;;22.52;15.07;;;;;;;;;;5101537;28;20249;-63
2023/01/25 13:32:00;;;;;;;22.50;13.88;;;;;;;;;;5102888;28;20202;-63
2023/01/25 13:34:59;;;;;;;25.52;16.13;;;;;;;;;;5102792;28;20196;-63
2023/01/25 13:37:27;;;;;;;22.83;15.48;;;;;;;;;;5060156;28;20447;-63
2023/01/25 13:39:54;;;;;;;25.08;16.92;;;;;;;;;;5059903;28;20250;-63
2023/01/25 13:42:22;;;;;;;24.60;15.82;;;;;;;;;;5078992;28;20199;-63
2023/01/25 13:44:49;;;;;;;25.35;16.92;;;;;;;;;;5102665;28;20411;-63
2023/01/25 13:47:19;;;;;;;26.90;16.38;;;;;;;;;;5102207;28;20371;-63
2023/01/25 13:49:47;;;;;;;24.63;16.08;;;;;;;;;;5102127;28;20208;-63
2023/01/25 13:52:15;;;;;;;26.25;16.67;;;;;;;;;;5101853;28;20206;-63
2023/01/25 13:54:45;;;;;;;24.70;16.58;;;;;;;;;;5102499;28;20249;-63
2023/01/25 13:57:12;;;;;;;24.90;16.30;;;;;;;;;;5101970;28;20203;-63
2023/01/25 13:59:38;;;;;;;27.50;16.25;;;;;;;;;;5084985;28;20398;-63
2023/01/25 14:02:11;;;;;;;28.10;17.13;;;;;;;;;;5059692;28;20205;-63
2023/01/25 14:04:39;;;;;;;23.35;16.08;;;;;;;;;;5064801;28;20213;-63
2023/01/25 14:07:08;;;;;;;25.73;16.30;;;;;;;;;;5069443;28;20213;-63
2023/01/25 14:09:35;;;;;;;27.33;16.33;;;;;;;;;;5056134;28;20217;-60
2023/01/25 14:12:02;;;;;;;25.85;16.30;;;;;;;;;;5059406;28;20208;-61
2023/01/25 14:14:29;;;;;;;27.10;17.30;;;;;;;;;;5055497;28;20229;-61
2023/01/25 14:17:10;;;;;;;26.02;17.00;;;;;;;;;;5074383;28;20205;-61
2023/01/25 14:19:37;;;;;;;25.80;16.42;;;;;;;;;;5071603;28;20444;-61
2023/01/25 14:22:12;;;;;;;26.95;17.83;;;;;;;;;;5063799;28;20235;-61
2023/01/25 14:24:38;;;;;;;26.92;17.00;;;;;;;;;;5062688;28;20539;-61